Terminal Aerodrome Forecast
Issued by NWS Cleveland, OH

Home | Current Version | Previous Version | Text Only | Print | Product List | Glossary Off
Versions: 1 2 3 4 5 6 7 8 9 10 11 12 13 14 15 16 17 18 19 20

000
FTUS41 KCLE 300500
TAFTOL
TAF
KTOL 300521Z 3006/3106 24005KT P6SM BKN100
     FM301200 23008KT P6SM BKN070
     FM301700 26010KT P6SM OVC035
      TEMPO 3017/3021 4SM SHRA OVC025
     FM302200 27006KT P6SM BKN070=

USA.gov is the U.S. government's official web portal to all federal, state and local government web resources and services.